Portada
METAR-TAF:

METAR-TAF

Aeroports :

Yangon, Myanmar

latitud: 16-46N, longitud: 096-10E, altitud: 14 m

Observació

L'informe es va fer fa 26 minuts, a les 10:00 UTC
Vent 5 kt del Sud-Oest
Temperatura 29°C
Humitat 74%
Pressió 1003 hPa
Visibilitat: 8000 m
Cel ennuvolat a una alçada de 1500 ft
Escasses núvols a una alçada de 2000 ft, Cumulonimbus.
Cel ennuvolat a una alçada de 10000 ft

METAR: VYYY 051000Z 23005KT 8000 BKN015 FEW020CB BKN100 29/24 Q1003 NOSIG

Hora: 16:56 (10:26 UTC)

Pronòstic

L'informe es va fer fa 5 hores i 26 minuts, a les 05:00 UTC
Pronòstic vàlid del 05 a les 06 UTC al 06 a les 06 UTC
Vent 8 kt del Sud-Oest
Visibilitat: 7000 m
Cel ennuvolat a una alçada de 1500 ft
Escasses núvols a una alçada de 2000 ft, Cumulonimbus.
Cel ennuvolat a una alçada de 10000 ft
Temporalment
l' 05 a les 06 UTC al 05 a les 12 UTC
Visibilitat: 5000 m
pluja

TAF: VYYY 050500Z 0506/0606 22008KT 7000 BKN015 FEW020CB BKN100 TEMPO 0506/0512 5000 -RA

Observacions i pronòstics meteorològics de més de 4000 aeroports (METAR i TAF).

Les estacions disponibles són els punts grocs i vermells al mapa.

Posi el ratolí al punt desitjat per veure el nom de l'estació.

Feu clic per veure les observacions i els pronòstics meteorològics.

Per canviar el mapa: feu clic els botons verds amb una creu de color negre per apropar; al botó verd amb un guió per allunyar la imatge; o en les fletxes verdes per a mapes adjacents.


METAR-TAF: